<?xml version='1.0' encoding='UTF-8'?><gpx version="1.1" creator="JPX - https://github.com/jenetics/jpx" xmlns="http://www.topografix.com/GPX/1/1"><trk><trkseg><trkpt lat="44.0110682" lon="8.0745098"><ele>340.0</ele><time>2026-04-19T09:08:50.029Z</time></trkpt><trkpt lat="44.010838" lon="8.0739084"><ele>340.0</ele><time>2026-04-19T09:09:29.37Z</time></trkpt></trkseg><trkseg><trkpt lat="44.0051981" lon="8.0300714"><ele>511.0</ele><time>2026-04-19T09:31:12.026Z</time></trkpt></trkseg><trkseg><trkpt lat="44.0052584" lon="8.0274518"><ele>687.0</ele><time>2026-04-19T09:52:23.942Z</time></trkpt><trkpt lat="43.9870007" lon="8.0177628"><ele>687.0</ele><time>2026-04-19T10:58:37.021Z</time></trkpt></trkseg><trkseg><trkpt lat="43.9846731" lon="8.0197954"><ele>710.0</ele><time>2026-04-19T11:03:40.021Z</time></trkpt><trkpt lat="43.9846357" lon="8.0198697"><ele>710.0</ele><time>2026-04-19T11:03:41.022Z</time></trkpt><trkpt lat="43.9845843" lon="8.0199482"><ele>710.0</ele><time>2026-04-19T11:03:42.021Z</time></trkpt><trkpt lat="43.9845295" lon="8.0200364"><ele>710.0</ele><time>2026-04-19T11:03:43.021Z</time></trkpt><trkpt lat="43.9844803" lon="8.0201403"><ele>710.0</ele><time>2026-04-19T11:03:44.021Z</time></trkpt><trkpt lat="43.9844476" lon="8.0202482"><ele>710.0</ele><time>2026-04-19T11:03:45.021Z</time></trkpt><trkpt lat="43.984417" lon="8.0203542"><ele>708.5</ele><time>2026-04-19T11:03:46.021Z</time></trkpt><trkpt lat="43.9844395" lon="8.0204445"><ele>707.0</ele><time>2026-04-19T11:03:47.022Z</time></trkpt><trkpt lat="43.9844497" lon="8.0205435"><ele>705.5</ele><time>2026-04-19T11:03:48.021Z</time></trkpt><trkpt lat="43.9844736" lon="8.0206503"><ele>704.0</ele><time>2026-04-19T11:03:49.021Z</time></trkpt><trkpt lat="43.984477" lon="8.0207561"><ele>702.5</ele><time>2026-04-19T11:03:50.021Z</time></trkpt><trkpt lat="43.984492" lon="8.0209062"><ele>701.0</ele><time>2026-04-19T11:03:52.022Z</time></trkpt><trkpt lat="43.9845622" lon="8.0209657"><ele>699.1999999999999</ele><time>2026-04-19T11:03:54.021Z</time></trkpt><trkpt lat="43.9846671" lon="8.0210213"><ele>697.4</ele><time>2026-04-19T11:03:56.021Z</time></trkpt><trkpt lat="43.984767" lon="8.0210943"><ele>695.6</ele><time>2026-04-19T11:03:58.021Z</time></trkpt><trkpt lat="43.9848569" lon="8.0211437"><ele>693.8</ele><time>2026-04-19T11:04:00.021Z</time></trkpt><trkpt lat="43.984926" lon="8.0211754"><ele>692.0</ele><time>2026-04-19T11:04:02.022Z</time></trkpt><trkpt lat="43.9849949" lon="8.0211734"><ele>689.5</ele><time>2026-04-19T11:04:04.021Z</time></trkpt><trkpt lat="43.9850879" lon="8.0211465"><ele>687.0</ele><time>2026-04-19T11:04:06.022Z</time></trkpt><trkpt lat="43.9851795" lon="8.0211463"><ele>684.5</ele><time>2026-04-19T11:04:08.021Z</time></trkpt><trkpt lat="43.9852473" lon="8.0211801"><ele>682.0</ele><time>2026-04-19T11:04:10.021Z</time></trkpt><trkpt lat="43.9853108" lon="8.0212416"><ele>679.5</ele><time>2026-04-19T11:04:12.022Z</time></trkpt><trkpt lat="43.9854106" lon="8.0212922"><ele>677.0</ele><time>2026-04-19T11:04:14.021Z</time></trkpt><trkpt lat="43.9855302" lon="8.021314"><ele>677.0</ele><time>2026-04-19T11:04:16.022Z</time></trkpt><trkpt lat="43.9856375" lon="8.0213605"><ele>677.0</ele><time>2026-04-19T11:04:18.021Z</time></trkpt><trkpt lat="43.9857284" lon="8.0214054"><ele>677.0</ele><time>2026-04-19T11:04:20.021Z</time></trkpt><trkpt lat="43.985823" lon="8.021455"><ele>677.0</ele><time>2026-04-19T11:04:22.021Z</time></trkpt><trkpt lat="43.985878" lon="8.0215411"><ele>677.0</ele><time>2026-04-19T11:04:24.02Z</time></trkpt><trkpt lat="43.9859305" lon="8.0216512"><ele>671.4000000000001</ele><time>2026-04-19T11:04:26.02Z</time></trkpt><trkpt lat="43.9860111" lon="8.0217161"><ele>665.8000000000001</ele><time>2026-04-19T11:04:28.021Z</time></trkpt><trkpt lat="43.9861251" lon="8.0217423"><ele>660.2</ele><time>2026-04-19T11:04:30.02Z</time></trkpt><trkpt lat="43.9862211" lon="8.0216955"><ele>654.6</ele><time>2026-04-19T11:04:32.021Z</time></trkpt><trkpt lat="43.986328" lon="8.0216373"><ele>649.0</ele><time>2026-04-19T11:04:34.02Z</time></trkpt><trkpt lat="43.9863947" lon="8.0216378"><ele>649.0</ele><time>2026-04-19T11:04:35.021Z</time></trkpt><trkpt lat="43.9865177" lon="8.0216603"><ele>649.0</ele><time>2026-04-19T11:04:37.021Z</time></trkpt><trkpt lat="43.9865879" lon="8.0216751"><ele>649.0</ele><time>2026-04-19T11:04:38.02Z</time></trkpt><trkpt lat="43.9866831" lon="8.0217557"><ele>649.0</ele><time>2026-04-19T11:04:40.02Z</time></trkpt><trkpt lat="43.9867427" lon="8.0218136"><ele>649.0</ele><time>2026-04-19T11:04:41.02Z</time></trkpt><trkpt lat="43.9868401" lon="8.0218841"><ele>643.75</ele><time>2026-04-19T11:04:43.021Z</time></trkpt><trkpt lat="43.9869447" lon="8.0219047"><ele>638.5</ele><time>2026-04-19T11:04:45.022Z</time></trkpt><trkpt lat="43.9870126" lon="8.0219031"><ele>633.25</ele><time>2026-04-19T11:04:46.021Z</time></trkpt><trkpt lat="43.9871115" lon="8.021902"><ele>628.0</ele><time>2026-04-19T11:04:48.021Z</time></trkpt><trkpt lat="43.988803" lon="8.123022"><ele>64.0</ele><time>2026-04-19T11:46:03.945Z</time></trkpt><trkpt lat="43.9884565" lon="8.1319751"><ele>64.0</ele><time>2026-04-19T11:50:13.017Z</time></trkpt><trkpt lat="43.9885801" lon="8.1320473"><ele>64.0</ele><time>2026-04-19T11:54:32.017Z</time></trkpt><trkpt lat="43.9886751" lon="8.1321408"><ele>64.0</ele><time>2026-04-19T11:54:34.016Z</time></trkpt><trkpt lat="43.9887368" lon="8.1321882"><ele>64.0</ele><time>2026-04-19T11:54:35.017Z</time></trkpt><trkpt lat="43.9888113" lon="8.1322291"><ele>64.0</ele><time>2026-04-19T11:54:36.017Z</time></trkpt><trkpt lat="43.9888837" lon="8.1322659"><ele>64.0</ele><time>2026-04-19T11:54:37.016Z</time></trkpt><trkpt lat="43.9889367" lon="8.1323163"><ele>64.0</ele><time>2026-04-19T11:54:38.018Z</time></trkpt><trkpt lat="43.9889797" lon="8.1324118"><ele>64.0</ele><time>2026-04-19T11:54:39.016Z</time></trkpt><trkpt lat="43.9890157" lon="8.1325287"><ele>64.0</ele><time>2026-04-19T11:54:40.016Z</time></trkpt><trkpt lat="43.9890497" lon="8.1326695"><ele>64.0</ele><time>2026-04-19T11:54:41.016Z</time></trkpt><trkpt lat="43.9891149" lon="8.1328084"><ele>68.25</ele><time>2026-04-19T11:54:42.017Z</time></trkpt><trkpt lat="43.9891873" lon="8.1329411"><ele>72.5</ele><time>2026-04-19T11:54:43.016Z</time></trkpt><trkpt lat="43.9892799" lon="8.1330662"><ele>76.75</ele><time>2026-04-19T11:54:44.016Z</time></trkpt><trkpt lat="43.9893726" lon="8.1332015"><ele>81.0</ele><time>2026-04-19T11:54:45.016Z</time></trkpt><trkpt lat="43.9894774" lon="8.1333367"><ele>81.0</ele><time>2026-04-19T11:54:46.016Z</time></trkpt><trkpt lat="43.9895846" lon="8.1334727"><ele>81.0</ele><time>2026-04-19T11:54:47.016Z</time></trkpt><trkpt lat="43.9896978" lon="8.1336014"><ele>81.0</ele><time>2026-04-19T11:54:48.017Z</time></trkpt><trkpt lat="43.9898142" lon="8.1337162"><ele>81.0</ele><time>2026-04-19T11:54:49.016Z</time></trkpt><trkpt lat="43.9899285" lon="8.1338292"><ele>81.75</ele><time>2026-04-19T11:54:50.016Z</time></trkpt><trkpt lat="43.9900411" lon="8.1339472"><ele>82.5</ele><time>2026-04-19T11:54:51.017Z</time></trkpt><trkpt lat="43.9901387" lon="8.134066"><ele>83.25</ele><time>2026-04-19T11:54:52.016Z</time></trkpt><trkpt lat="43.9902416" lon="8.1341903"><ele>84.0</ele><time>2026-04-19T11:54:53.016Z</time></trkpt><trkpt lat="43.9903439" lon="8.1343062"><ele>84.0</ele><time>2026-04-19T11:54:54.016Z</time></trkpt><trkpt lat="43.9904567" lon="8.1344129"><ele>84.0</ele><time>2026-04-19T11:54:55.017Z</time></trkpt><trkpt lat="43.9905755" lon="8.1345196"><ele>84.0</ele><time>2026-04-19T11:54:56.017Z</time></trkpt><trkpt lat="43.9907006" lon="8.1346168"><ele>84.0</ele><time>2026-04-19T11:54:57.016Z</time></trkpt><trkpt lat="43.9908291" lon="8.1347123"><ele>83.0</ele><time>2026-04-19T11:54:58.017Z</time></trkpt><trkpt lat="43.9909592" lon="8.1347971"><ele>82.0</ele><time>2026-04-19T11:54:59.016Z</time></trkpt><trkpt lat="43.9910958" lon="8.1348616"><ele>81.0</ele><time>2026-04-19T11:55:00.017Z</time></trkpt><trkpt lat="43.991226" lon="8.1349182"><ele>80.0</ele><time>2026-04-19T11:55:01.016Z</time></trkpt><trkpt lat="43.9913327" lon="8.1349726"><ele>80.0</ele><time>2026-04-19T11:55:02.017Z</time></trkpt><trkpt lat="43.9914232" lon="8.1350263"><ele>80.0</ele><time>2026-04-19T11:55:03.016Z</time></trkpt><trkpt lat="43.9914784" lon="8.1350898"><ele>80.0</ele><time>2026-04-19T11:55:04.016Z</time></trkpt><trkpt lat="43.9914832" lon="8.1352473"><ele>80.0</ele><time>2026-04-19T11:55:06.016Z</time></trkpt><trkpt lat="43.9914497" lon="8.1353274"><ele>80.0</ele><time>2026-04-19T11:55:07.016Z</time></trkpt><trkpt lat="43.9913563" lon="8.1354043"><ele>80.0</ele><time>2026-04-19T11:55:09.016Z</time></trkpt><trkpt lat="43.9912795" lon="8.1354105"><ele>80.0</ele><time>2026-04-19T11:55:10.017Z</time></trkpt><trkpt lat="43.9911646" lon="8.1353865"><ele>80.0</ele><time>2026-04-19T11:55:11.016Z</time></trkpt><trkpt lat="43.9910454" lon="8.1353867"><ele>80.0</ele><time>2026-04-19T11:55:12.016Z</time></trkpt><trkpt lat="43.9909357" lon="8.135424"><ele>80.0</ele><time>2026-04-19T11:55:13.017Z</time></trkpt><trkpt lat="43.9908339" lon="8.1354426"><ele>78.2</ele><time>2026-04-19T11:55:14.017Z</time></trkpt><trkpt lat="43.9907363" lon="8.1354408"><ele>76.4</ele><time>2026-04-19T11:55:15.017Z</time></trkpt><trkpt lat="43.9906426" lon="8.1354005"><ele>74.6</ele><time>2026-04-19T11:55:16.016Z</time></trkpt><trkpt lat="43.9905391" lon="8.1353572"><ele>72.8</ele><time>2026-04-19T11:55:17.017Z</time></trkpt><trkpt lat="43.9904131" lon="8.1353384"><ele>71.0</ele><time>2026-04-19T11:55:18.016Z</time></trkpt><trkpt lat="43.9902926" lon="8.1353303"><ele>71.0</ele><time>2026-04-19T11:55:19.017Z</time></trkpt><trkpt lat="43.9901783" lon="8.1353225"><ele>71.0</ele><time>2026-04-19T11:55:20.016Z</time></trkpt><trkpt lat="43.9900829" lon="8.1352922"><ele>71.0</ele><time>2026-04-19T11:55:21.016Z</time></trkpt><trkpt lat="43.9899969" lon="8.1352365"><ele>71.0</ele><time>2026-04-19T11:55:22.017Z</time></trkpt><trkpt lat="43.9899036" lon="8.1351891"><ele>71.0</ele><time>2026-04-19T11:55:23.017Z</time></trkpt><trkpt lat="43.9898051" lon="8.1351649"><ele>72.0</ele><time>2026-04-19T11:55:24.017Z</time></trkpt><trkpt lat="43.989702" lon="8.1351691"><ele>73.0</ele><time>2026-04-19T11:55:25.018Z</time></trkpt><trkpt lat="43.9896094" lon="8.1351812"><ele>74.0</ele><time>2026-04-19T11:55:26.017Z</time></trkpt><trkpt lat="43.9895251" lon="8.1351651"><ele>75.0</ele><time>2026-04-19T11:55:27.016Z</time></trkpt><trkpt lat="43.9894403" lon="8.1351181"><ele>76.0</ele><time>2026-04-19T11:55:28.016Z</time></trkpt><trkpt lat="43.9893525" lon="8.1350892"><ele>76.0</ele><time>2026-04-19T11:55:29.016Z</time></trkpt><trkpt lat="43.9892363" lon="8.1350695"><ele>76.0</ele><time>2026-04-19T11:55:30.016Z</time></trkpt><trkpt lat="43.989135" lon="8.1350659"><ele>76.0</ele><time>2026-04-19T11:55:31.016Z</time></trkpt><trkpt lat="43.9890401" lon="8.1350853"><ele>76.0</ele><time>2026-04-19T11:55:32.016Z</time></trkpt><trkpt lat="43.9889622" lon="8.1351775"><ele>76.0</ele><time>2026-04-19T11:55:33.016Z</time></trkpt><trkpt lat="43.9888795" lon="8.135268"><ele>77.8</ele><time>2026-04-19T11:55:34.017Z</time></trkpt><trkpt lat="43.988789" lon="8.1353252"><ele>79.6</ele><time>2026-04-19T11:55:35.017Z</time></trkpt><trkpt lat="43.9886932" lon="8.1353515"><ele>81.4</ele><time>2026-04-19T11:55:36.016Z</time></trkpt><trkpt lat="43.9886033" lon="8.1353473"><ele>83.2</ele><time>2026-04-19T11:55:37.016Z</time></trkpt><trkpt lat="43.9885082" lon="8.1352972"><ele>85.0</ele><time>2026-04-19T11:55:38.016Z</time></trkpt><trkpt lat="43.9884183" lon="8.1352181"><ele>87.5</ele><time>2026-04-19T11:55:39.016Z</time></trkpt><trkpt lat="43.9883134" lon="8.1351191"><ele>90.0</ele><time>2026-04-19T11:55:40.016Z</time></trkpt><trkpt lat="43.9881946" lon="8.1350107"><ele>92.5</ele><time>2026-04-19T11:55:41.016Z</time></trkpt><trkpt lat="43.9880631" lon="8.134915"><ele>95.0</ele><time>2026-04-19T11:55:42.017Z</time></trkpt><trkpt lat="43.9879256" lon="8.1348293"><ele>92.0</ele><time>2026-04-19T11:55:43.017Z</time></trkpt><trkpt lat="43.9877906" lon="8.1347389"><ele>89.0</ele><time>2026-04-19T11:55:44.016Z</time></trkpt><trkpt lat="43.9876629" lon="8.134655"><ele>86.0</ele><time>2026-04-19T11:55:45.017Z</time></trkpt><trkpt lat="43.9875722" lon="8.1345683"><ele>83.0</ele><time>2026-04-19T11:55:46.016Z</time></trkpt><trkpt lat="43.9875026" lon="8.1345163"><ele>83.0</ele><time>2026-04-19T11:55:47.016Z</time></trkpt><trkpt lat="43.9873915" lon="8.1345659"><ele>83.0</ele><time>2026-04-19T11:55:49.016Z</time></trkpt><trkpt lat="43.9873769" lon="8.1347193"><ele>83.0</ele><time>2026-04-19T11:55:51.016Z</time></trkpt><trkpt lat="43.9874227" lon="8.13479"><ele>83.0</ele><time>2026-04-19T11:55:52.016Z</time></trkpt><trkpt lat="43.9874927" lon="8.1348441"><ele>83.0</ele><time>2026-04-19T11:55:53.016Z</time></trkpt><trkpt lat="43.9875927" lon="8.1348749"><ele>85.4</ele><time>2026-04-19T11:55:54.016Z</time></trkpt><trkpt lat="43.9876907" lon="8.134914"><ele>87.80000000000001</ele><time>2026-04-19T11:55:55.016Z</time></trkpt><trkpt lat="43.987789" lon="8.1349839"><ele>90.2</ele><time>2026-04-19T11:55:56.016Z</time></trkpt><trkpt lat="43.987871" lon="8.1350738"><ele>92.6</ele><time>2026-04-19T11:55:57.016Z</time></trkpt><trkpt lat="43.9879532" lon="8.1351737"><ele>95.0</ele><time>2026-04-19T11:55:58.016Z</time></trkpt><trkpt lat="43.988028" lon="8.1352855"><ele>95.0</ele><time>2026-04-19T11:55:59.016Z</time></trkpt><trkpt lat="43.9880933" lon="8.1354044"><ele>95.0</ele><time>2026-04-19T11:56:00.017Z</time></trkpt><trkpt lat="43.988141" lon="8.1355256"><ele>95.0</ele><time>2026-04-19T11:56:01.016Z</time></trkpt><trkpt lat="43.9881804" lon="8.1356582"><ele>95.0</ele><time>2026-04-19T11:56:02.016Z</time></trkpt><trkpt lat="43.9881899" lon="8.1357858"><ele>95.0</ele><time>2026-04-19T11:56:03.017Z</time></trkpt><trkpt lat="43.9882146" lon="8.1359234"><ele>97.4</ele><time>2026-04-19T11:56:04.017Z</time></trkpt><trkpt lat="43.9882334" lon="8.1360634"><ele>99.8</ele><time>2026-04-19T11:56:05.016Z</time></trkpt><trkpt lat="43.9882434" lon="8.1362021"><ele>102.19999999999999</ele><time>2026-04-19T11:56:06.016Z</time></trkpt><trkpt lat="43.9882403" lon="8.1363607"><ele>104.6</ele><time>2026-04-19T11:56:07.016Z</time></trkpt><trkpt lat="43.9882309" lon="8.1365284"><ele>107.0</ele><time>2026-04-19T11:56:08.016Z</time></trkpt><trkpt lat="43.9882182" lon="8.1366753"><ele>107.99999999999999</ele><time>2026-04-19T11:56:09.016Z</time></trkpt><trkpt lat="43.9882102" lon="8.1368252"><ele>109.0</ele><time>2026-04-19T11:56:10.016Z</time></trkpt><trkpt lat="43.9882426" lon="8.1369149"><ele>110.0</ele><time>2026-04-19T11:56:11.017Z</time></trkpt><trkpt lat="43.9882906" lon="8.1369806"><ele>111.0</ele><time>2026-04-19T11:56:12.017Z</time></trkpt><trkpt lat="43.9883455" lon="8.1370483"><ele>111.99999999999999</ele><time>2026-04-19T11:56:13.016Z</time></trkpt><trkpt lat="43.9884064" lon="8.1371257"><ele>113.0</ele><time>2026-04-19T11:56:14.016Z</time></trkpt><trkpt lat="43.9884666" lon="8.1372379"><ele>116.75</ele><time>2026-04-19T11:56:15.016Z</time></trkpt><trkpt lat="43.9885351" lon="8.1373844"><ele>120.5</ele><time>2026-04-19T11:56:16.016Z</time></trkpt><trkpt lat="43.9885979" lon="8.1375229"><ele>124.25</ele><time>2026-04-19T11:56:17.016Z</time></trkpt><trkpt lat="43.9886778" lon="8.1376535"><ele>128.0</ele><time>2026-04-19T11:56:18.016Z</time></trkpt><trkpt lat="43.9887633" lon="8.1377804"><ele>129.8</ele><time>2026-04-19T11:56:19.016Z</time></trkpt><trkpt lat="43.9888552" lon="8.1378988"><ele>131.60000000000002</ele><time>2026-04-19T11:56:20.016Z</time></trkpt><trkpt lat="43.9889398" lon="8.1379973"><ele>133.39999999999998</ele><time>2026-04-19T11:56:21.016Z</time></trkpt><trkpt lat="43.9890183" lon="8.138077"><ele>135.2</ele><time>2026-04-19T11:56:22.016Z</time></trkpt><trkpt lat="43.9891037" lon="8.1381594"><ele>137.0</ele><time>2026-04-19T11:56:23.016Z</time></trkpt><trkpt lat="43.9891736" lon="8.1382503"><ele>142.6</ele><time>2026-04-19T11:56:24.016Z</time></trkpt><trkpt lat="43.9892378" lon="8.1383598"><ele>148.2</ele><time>2026-04-19T11:56:25.017Z</time></trkpt><trkpt lat="43.9893025" lon="8.138475"><ele>153.8</ele><time>2026-04-19T11:56:26.016Z</time></trkpt><trkpt lat="43.9893623" lon="8.1385831"><ele>159.4</ele><time>2026-04-19T11:56:27.015Z</time></trkpt><trkpt lat="43.9894271" lon="8.1386941"><ele>165.0</ele><time>2026-04-19T11:56:28.016Z</time></trkpt><trkpt lat="43.9895037" lon="8.1388032"><ele>165.0</ele><time>2026-04-19T11:56:29.016Z</time></trkpt><trkpt lat="43.9895759" lon="8.1388884"><ele>165.0</ele><time>2026-04-19T11:56:30.016Z</time></trkpt><trkpt lat="43.9896638" lon="8.1389605"><ele>165.0</ele><time>2026-04-19T11:56:31.015Z</time></trkpt><trkpt lat="43.9897731" lon="8.1390282"><ele>165.0</ele><time>2026-04-19T11:56:32.016Z</time></trkpt><trkpt lat="43.9898846" lon="8.1390959"><ele>165.0</ele><time>2026-04-19T11:56:33.016Z</time></trkpt><trkpt lat="43.989993" lon="8.1391716"><ele>166.0</ele><time>2026-04-19T11:56:34.016Z</time></trkpt><trkpt lat="43.9900846" lon="8.1392534"><ele>167.0</ele><time>2026-04-19T11:56:35.016Z</time></trkpt><trkpt lat="43.9901625" lon="8.1393614"><ele>168.0</ele><time>2026-04-19T11:56:36.016Z</time></trkpt><trkpt lat="43.9902176" lon="8.1394928"><ele>169.0</ele><time>2026-04-19T11:56:37.016Z</time></trkpt><trkpt lat="43.9902638" lon="8.1396263"><ele>170.0</ele><time>2026-04-19T11:56:38.016Z</time></trkpt><trkpt lat="43.9903172" lon="8.1397393"><ele>170.0</ele><time>2026-04-19T11:56:39.016Z</time></trkpt><trkpt lat="43.9903705" lon="8.1398409"><ele>170.0</ele><time>2026-04-19T11:56:40.016Z</time></trkpt><trkpt lat="43.9904574" lon="8.1399418"><ele>170.0</ele><time>2026-04-19T11:56:41.016Z</time></trkpt><trkpt lat="43.9905339" lon="8.1400368"><ele>170.0</ele><time>2026-04-19T11:56:42.016Z</time></trkpt><trkpt lat="43.9906199" lon="8.1401322"><ele>170.0</ele><time>2026-04-19T11:56:43.016Z</time></trkpt><trkpt lat="43.9907211" lon="8.1402364"><ele>172.0</ele><time>2026-04-19T11:56:44.015Z</time></trkpt><trkpt lat="43.9908251" lon="8.1403512"><ele>174.0</ele><time>2026-04-19T11:56:45.016Z</time></trkpt><trkpt lat="43.9909212" lon="8.1404661"><ele>176.0</ele><time>2026-04-19T11:56:46.016Z</time></trkpt><trkpt lat="43.9910352" lon="8.1405876"><ele>178.0</ele><time>2026-04-19T11:56:47.016Z</time></trkpt><trkpt lat="43.9911343" lon="8.1407038"><ele>176.75</ele><time>2026-04-19T11:56:48.016Z</time></trkpt><trkpt lat="43.9912267" lon="8.1408151"><ele>175.5</ele><time>2026-04-19T11:56:49.016Z</time></trkpt><trkpt lat="43.9913269" lon="8.1409256"><ele>174.25</ele><time>2026-04-19T11:56:50.016Z</time></trkpt><trkpt lat="43.9914257" lon="8.1410276"><ele>173.0</ele><time>2026-04-19T11:56:51.015Z</time></trkpt><trkpt lat="43.9915448" lon="8.1411077"><ele>173.0</ele><time>2026-04-19T11:56:52.016Z</time></trkpt><trkpt lat="43.9916476" lon="8.1411876"><ele>173.0</ele><time>2026-04-19T11:56:53.017Z</time></trkpt><trkpt lat="43.9917564" lon="8.1412684"><ele>173.0</ele><time>2026-04-19T11:56:54.016Z</time></trkpt><trkpt lat="43.991851" lon="8.1413503"><ele>173.0</ele><time>2026-04-19T11:56:55.016Z</time></trkpt><trkpt lat="43.9919464" lon="8.1414282"><ele>173.8</ele><time>2026-04-19T11:56:56.016Z</time></trkpt><trkpt lat="43.9920444" lon="8.1415086"><ele>174.60000000000002</ele><time>2026-04-19T11:56:57.017Z</time></trkpt><trkpt lat="43.9921405" lon="8.14159"><ele>175.39999999999998</ele><time>2026-04-19T11:56:58.016Z</time></trkpt><trkpt lat="43.9922337" lon="8.1416634"><ele>176.2</ele><time>2026-04-19T11:56:59.016Z</time></trkpt><trkpt lat="43.9923197" lon="8.1417011"><ele>177.0</ele><time>2026-04-19T11:57:00.015Z</time></trkpt><trkpt lat="43.9924242" lon="8.1417547"><ele>175.8</ele><time>2026-04-19T11:57:01.016Z</time></trkpt><trkpt lat="43.9925184" lon="8.1418181"><ele>174.6</ele><time>2026-04-19T11:57:02.016Z</time></trkpt><trkpt lat="43.9925999" lon="8.1418951"><ele>173.4</ele><time>2026-04-19T11:57:03.016Z</time></trkpt><trkpt lat="43.9926909" lon="8.1419701"><ele>172.20000000000002</ele><time>2026-04-19T11:57:04.017Z</time></trkpt><trkpt lat="43.9927731" lon="8.1420422"><ele>171.0</ele><time>2026-04-19T11:57:05.016Z</time></trkpt><trkpt lat="43.9928514" lon="8.1421312"><ele>171.0</ele><time>2026-04-19T11:57:06.016Z</time></trkpt><trkpt lat="43.9929108" lon="8.1422289"><ele>171.0</ele><time>2026-04-19T11:57:07.016Z</time></trkpt><trkpt lat="43.9929478" lon="8.1423281"><ele>171.0</ele><time>2026-04-19T11:57:08.016Z</time></trkpt><trkpt lat="43.9929875" lon="8.1424336"><ele>171.0</ele><time>2026-04-19T11:57:09.016Z</time></trkpt><trkpt lat="43.9930431" lon="8.1425558"><ele>171.0</ele><time>2026-04-19T11:57:10.016Z</time></trkpt><trkpt lat="43.9931053" lon="8.14267"><ele>171.8</ele><time>2026-04-19T11:57:11.016Z</time></trkpt><trkpt lat="43.9931785" lon="8.1427742"><ele>172.60000000000002</ele><time>2026-04-19T11:57:12.016Z</time></trkpt><trkpt lat="43.9932485" lon="8.1428794"><ele>173.4</ele><time>2026-04-19T11:57:13.016Z</time></trkpt><trkpt lat="43.99331" lon="8.1430053"><ele>174.2</ele><time>2026-04-19T11:57:14.016Z</time></trkpt><trkpt lat="43.993376" lon="8.1431356"><ele>175.0</ele><time>2026-04-19T11:57:15.016Z</time></trkpt><trkpt lat="43.9934577" lon="8.1432773"><ele>175.0</ele><time>2026-04-19T11:57:16.017Z</time></trkpt><trkpt lat="43.9935395" lon="8.1434197"><ele>175.0</ele><time>2026-04-19T11:57:17.015Z</time></trkpt><trkpt lat="43.993606" lon="8.1435632"><ele>175.0</ele><time>2026-04-19T11:57:18.016Z</time></trkpt><trkpt lat="43.9936524" lon="8.1437032"><ele>175.0</ele><time>2026-04-19T11:57:19.016Z</time></trkpt><trkpt lat="43.9936924" lon="8.1438254"><ele>175.0</ele><time>2026-04-19T11:57:20.017Z</time></trkpt><trkpt lat="43.9937265" lon="8.1439491"><ele>175.0</ele><time>2026-04-19T11:57:21.016Z</time></trkpt><trkpt lat="43.9937566" lon="8.1440636"><ele>175.0</ele><time>2026-04-19T11:57:22.016Z</time></trkpt><trkpt lat="43.9937774" lon="8.1441937"><ele>175.0</ele><time>2026-04-19T11:57:23.016Z</time></trkpt><trkpt lat="43.9938076" lon="8.144324"><ele>175.0</ele><time>2026-04-19T11:57:24.016Z</time></trkpt><trkpt lat="43.9938341" lon="8.1444547"><ele>178.66666666666669</ele><time>2026-04-19T11:57:25.016Z</time></trkpt><trkpt lat="43.9938455" lon="8.1445755"><ele>182.33333333333334</ele><time>2026-04-19T11:57:26.015Z</time></trkpt><trkpt lat="43.9938498" lon="8.1446806"><ele>186.0</ele><time>2026-04-19T11:57:27.015Z</time></trkpt><trkpt lat="43.9938438" lon="8.1447989"><ele>189.66666666666669</ele><time>2026-04-19T11:57:28.015Z</time></trkpt><trkpt lat="43.9938163" lon="8.144915"><ele>193.33333333333334</ele><time>2026-04-19T11:57:29.017Z</time></trkpt><trkpt lat="43.9937886" lon="8.1450428"><ele>197.0</ele><time>2026-04-19T11:57:30.016Z</time></trkpt><trkpt lat="43.9937619" lon="8.1451746"><ele>201.0</ele><time>2026-04-19T11:57:31.016Z</time></trkpt><trkpt lat="43.9937454" lon="8.1453071"><ele>205.0</ele><time>2026-04-19T11:57:32.015Z</time></trkpt><trkpt lat="43.9937527" lon="8.1454471"><ele>209.0</ele><time>2026-04-19T11:57:33.016Z</time></trkpt><trkpt lat="43.9937666" lon="8.1455893"><ele>213.0</ele><time>2026-04-19T11:57:34.017Z</time></trkpt><trkpt lat="43.9937921" lon="8.1457279"><ele>217.0</ele><time>2026-04-19T11:57:35.017Z</time></trkpt><trkpt lat="43.9938188" lon="8.1458595"><ele>219.99999999999997</ele><time>2026-04-19T11:57:36.017Z</time></trkpt><trkpt lat="43.9938343" lon="8.1459785"><ele>223.0</ele><time>2026-04-19T11:57:37.017Z</time></trkpt><trkpt lat="43.9938427" lon="8.1460844"><ele>226.0</ele><time>2026-04-19T11:57:38.016Z</time></trkpt><trkpt lat="43.9938368" lon="8.1461766"><ele>229.0</ele><time>2026-04-19T11:57:39.016Z</time></trkpt><trkpt lat="43.993807" lon="8.1462615"><ele>231.99999999999997</ele><time>2026-04-19T11:57:40.016Z</time></trkpt><trkpt lat="43.9937708" lon="8.1463352"><ele>235.0</ele><time>2026-04-19T11:57:41.016Z</time></trkpt><trkpt lat="43.9937334" lon="8.146461"><ele>235.0</ele><time>2026-04-19T11:57:43.015Z</time></trkpt><trkpt lat="43.9937911" lon="8.146513"><ele>235.0</ele><time>2026-04-19T11:57:45.015Z</time></trkpt><trkpt lat="43.9938599" lon="8.1464551"><ele>235.0</ele><time>2026-04-19T11:57:47.016Z</time></trkpt><trkpt lat="43.9939543" lon="8.146317"><ele>235.0</ele><time>2026-04-19T11:57:49.015Z</time></trkpt><trkpt lat="43.9940129" lon="8.1462628"><ele>235.0</ele><time>2026-04-19T11:57:50.015Z</time></trkpt><trkpt lat="43.9941253" lon="8.1462507"><ele>233.2</ele><time>2026-04-19T11:57:52.015Z</time></trkpt><trkpt lat="43.9941738" lon="8.1463079"><ele>231.4</ele><time>2026-04-19T11:57:53.015Z</time></trkpt><trkpt lat="43.9942167" lon="8.1464068"><ele>229.60000000000002</ele><time>2026-04-19T11:57:54.016Z</time></trkpt><trkpt lat="43.9942664" lon="8.1465295"><ele>227.8</ele><time>2026-04-19T11:57:55.016Z</time></trkpt><trkpt lat="43.9943376" lon="8.1466489"><ele>226.0</ele><time>2026-04-19T11:57:56.015Z</time></trkpt><trkpt lat="43.9944499" lon="8.14676"><ele>226.0</ele><time>2026-04-19T11:57:57.015Z</time></trkpt><trkpt lat="43.9945663" lon="8.1468603"><ele>226.0</ele><time>2026-04-19T11:57:58.016Z</time></trkpt><trkpt lat="43.9946764" lon="8.1469636"><ele>226.0</ele><time>2026-04-19T11:57:59.017Z</time></trkpt><trkpt lat="43.9947657" lon="8.147064"><ele>226.0</ele><time>2026-04-19T11:58:00.016Z</time></trkpt><trkpt lat="43.9948291" lon="8.1471799"><ele>226.0</ele><time>2026-04-19T11:58:01.016Z</time></trkpt><trkpt lat="43.9948895" lon="8.147309"><ele>226.0</ele><time>2026-04-19T11:58:02.016Z</time></trkpt><trkpt lat="43.9949709" lon="8.1474135"><ele>226.0</ele><time>2026-04-19T11:58:03.015Z</time></trkpt><trkpt lat="43.9950732" lon="8.1475112"><ele>226.0</ele><time>2026-04-19T11:58:04.016Z</time></trkpt><trkpt lat="43.9951796" lon="8.1475798"><ele>229.8</ele><time>2026-04-19T11:58:05.016Z</time></trkpt><trkpt lat="43.995255" lon="8.1476475"><ele>233.60000000000002</ele><time>2026-04-19T11:58:06.015Z</time></trkpt><trkpt lat="43.9953118" lon="8.1477442"><ele>237.4</ele><time>2026-04-19T11:58:07.015Z</time></trkpt><trkpt lat="43.9953624" lon="8.1478685"><ele>241.2</ele><time>2026-04-19T11:58:08.016Z</time></trkpt><trkpt lat="43.995413" lon="8.1480003"><ele>245.0</ele><time>2026-04-19T11:58:09.016Z</time></trkpt><trkpt lat="43.995495" lon="8.1480462"><ele>245.00000000000003</ele><time>2026-04-19T11:58:10.016Z</time></trkpt><trkpt lat="43.9955669" lon="8.1480752"><ele>245.0</ele><time>2026-04-19T11:58:11.017Z</time></trkpt><trkpt lat="43.9956528" lon="8.1480558"><ele>245.0</ele><time>2026-04-19T11:58:12.017Z</time></trkpt><trkpt lat="43.9957361" lon="8.1480534"><ele>245.0</ele><time>2026-04-19T11:58:13.015Z</time></trkpt><trkpt lat="43.9958102" lon="8.1480953"><ele>245.00000000000003</ele><time>2026-04-19T11:58:14.016Z</time></trkpt><trkpt lat="43.995891" lon="8.1481496"><ele>245.0</ele><time>2026-04-19T11:58:15.016Z</time></trkpt><trkpt lat="43.9959797" lon="8.1481724"><ele>248.8</ele><time>2026-04-19T11:58:16.016Z</time></trkpt><trkpt lat="43.9960872" lon="8.1481684"><ele>252.6</ele><time>2026-04-19T11:58:17.015Z</time></trkpt><trkpt lat="43.9961992" lon="8.1481268"><ele>256.4</ele><time>2026-04-19T11:58:18.016Z</time></trkpt><trkpt lat="43.9962989" lon="8.148088"><ele>260.2</ele><time>2026-04-19T11:58:19.016Z</time></trkpt><trkpt lat="43.9963739" lon="8.1480241"><ele>264.0</ele><time>2026-04-19T11:58:20.016Z</time></trkpt><trkpt lat="43.9964406" lon="8.147927"><ele>264.0</ele><time>2026-04-19T11:58:21.015Z</time></trkpt><trkpt lat="43.9964788" lon="8.1478213"><ele>264.0</ele><time>2026-04-19T11:58:22.016Z</time></trkpt><trkpt lat="43.9964761" lon="8.147688"><ele>264.0</ele><time>2026-04-19T11:58:23.015Z</time></trkpt><trkpt lat="43.9964574" lon="8.1475448"><ele>264.0</ele><time>2026-04-19T11:58:24.016Z</time></trkpt><trkpt lat="43.9964487" lon="8.1474135"><ele>264.0</ele><time>2026-04-19T11:58:25.016Z</time></trkpt><trkpt lat="43.9964613" lon="8.1473099"><ele>264.59999999999997</ele><time>2026-04-19T11:58:26.015Z</time></trkpt><trkpt lat="43.9965009" lon="8.1472297"><ele>265.2</ele><time>2026-04-19T11:58:27.016Z</time></trkpt><trkpt lat="43.9965705" lon="8.1471817"><ele>265.79999999999995</ele><time>2026-04-19T11:58:28.016Z</time></trkpt><trkpt lat="43.9966653" lon="8.1471592"><ele>266.4</ele><time>2026-04-19T11:58:29.015Z</time></trkpt><trkpt lat="43.9967817" lon="8.1471731"><ele>267.0</ele><time>2026-04-19T11:58:30.016Z</time></trkpt><trkpt lat="43.9969045" lon="8.147199"><ele>267.0</ele><time>2026-04-19T11:58:31.015Z</time></trkpt><trkpt lat="43.9970253" lon="8.147219"><ele>267.0</ele><time>2026-04-19T11:58:32.015Z</time></trkpt><trkpt lat="43.9971317" lon="8.1472046"><ele>267.0</ele><time>2026-04-19T11:58:33.015Z</time></trkpt><trkpt lat="43.9972249" lon="8.147158"><ele>267.0</ele><time>2026-04-19T11:58:34.017Z</time></trkpt><trkpt lat="43.9972861" lon="8.1470835"><ele>267.0</ele><time>2026-04-19T11:58:35.015Z</time></trkpt><trkpt lat="43.9973307" lon="8.1469831"><ele>267.0</ele><time>2026-04-19T11:58:36.016Z</time></trkpt><trkpt lat="43.9973555" lon="8.1468519"><ele>267.0</ele><time>2026-04-19T11:58:37.016Z</time></trkpt><trkpt lat="43.9973755" lon="8.1467188"><ele>267.0</ele><time>2026-04-19T11:58:38.016Z</time></trkpt><trkpt lat="43.9974154" lon="8.1466124"><ele>267.0</ele><time>2026-04-19T11:58:39.016Z</time></trkpt><trkpt lat="43.9974764" lon="8.1465554"><ele>267.0</ele><time>2026-04-19T11:58:40.015Z</time></trkpt><trkpt lat="43.9975528" lon="8.1465256"><ele>267.0</ele><time>2026-04-19T11:58:41.015Z</time></trkpt><trkpt lat="43.9976416" lon="8.1465336"><ele>269.5</ele><time>2026-04-19T11:58:42.016Z</time></trkpt><trkpt lat="43.997747" lon="8.1465641"><ele>272.0</ele><time>2026-04-19T11:58:43.016Z</time></trkpt><trkpt lat="43.9978583" lon="8.1465899"><ele>274.5</ele><time>2026-04-19T11:58:44.016Z</time></trkpt><trkpt lat="43.9979771" lon="8.1465972"><ele>277.0</ele><time>2026-04-19T11:58:45.015Z</time></trkpt><trkpt lat="43.9980922" lon="8.146573"><ele>277.0</ele><time>2026-04-19T11:58:46.015Z</time></trkpt><trkpt lat="43.9982034" lon="8.1465458"><ele>277.0</ele><time>2026-04-19T11:58:47.016Z</time></trkpt><trkpt lat="43.9982935" lon="8.1465642"><ele>277.0</ele><time>2026-04-19T11:58:48.016Z</time></trkpt><trkpt lat="43.998366" lon="8.1466093"><ele>277.0</ele><time>2026-04-19T11:58:49.015Z</time></trkpt><trkpt lat="43.9984336" lon="8.1466814"><ele>277.0</ele><time>2026-04-19T11:58:50.015Z</time></trkpt><trkpt lat="43.9984928" lon="8.1467614"><ele>277.6</ele><time>2026-04-19T11:58:51.016Z</time></trkpt><trkpt lat="43.9985746" lon="8.1468285"><ele>278.2</ele><time>2026-04-19T11:58:52.016Z</time></trkpt><trkpt lat="43.9986516" lon="8.1468544"><ele>278.8</ele><time>2026-04-19T11:58:53.017Z</time></trkpt><trkpt lat="43.9987529" lon="8.1468399"><ele>279.4</ele><time>2026-04-19T11:58:54.015Z</time></trkpt><trkpt lat="43.9988506" lon="8.1467882"><ele>280.0</ele><time>2026-04-19T11:58:55.016Z</time></trkpt><trkpt lat="43.9989366" lon="8.1467021"><ele>280.0</ele><time>2026-04-19T11:58:56.016Z</time></trkpt><trkpt lat="43.9990122" lon="8.1466528"><ele>280.0</ele><time>2026-04-19T11:58:57.015Z</time></trkpt><trkpt lat="43.999103" lon="8.1466059"><ele>280.0</ele><time>2026-04-19T11:58:58.015Z</time></trkpt><trkpt lat="43.9991713" lon="8.1465858"><ele>280.0</ele><time>2026-04-19T11:58:59.017Z</time></trkpt><trkpt lat="43.999243" lon="8.1465866"><ele>280.0</ele><time>2026-04-19T11:59:00.017Z</time></trkpt><trkpt lat="43.9993351" lon="8.1465583"><ele>280.0</ele><time>2026-04-19T11:59:02.016Z</time></trkpt><trkpt lat="43.9993786" lon="8.1464867"><ele>279.7142857142857</ele><time>2026-04-19T11:59:03.015Z</time></trkpt><trkpt lat="43.9994139" lon="8.1463987"><ele>279.42857142857144</ele><time>2026-04-19T11:59:04.015Z</time></trkpt><trkpt lat="43.9994431" lon="8.1465069"><ele>279.1428571428571</ele><time>2026-04-19T11:59:09.016Z</time></trkpt><trkpt lat="43.9994521" lon="8.146617"><ele>278.8571428571429</ele><time>2026-04-19T11:59:11.015Z</time></trkpt><trkpt lat="43.9994894" lon="8.1466893"><ele>278.57142857142856</ele><time>2026-04-19T11:59:13.015Z</time></trkpt><trkpt lat="43.9995389" lon="8.146748"><ele>278.2857142857143</ele><time>2026-04-19T11:59:15.015Z</time></trkpt><trkpt lat="43.9996121" lon="8.1467853"><ele>278.0</ele><time>2026-04-19T11:59:17.016Z</time></trkpt><trkpt lat="43.999603" lon="8.1469163"><ele>276.5</ele><time>2026-04-19T11:59:21.015Z</time></trkpt><trkpt lat="43.9995421" lon="8.1469804"><ele>275.0</ele><time>2026-04-19T11:59:23.016Z</time></trkpt><trkpt lat="43.9995426" lon="8.1470918"><ele>273.5</ele><time>2026-04-19T11:59:27.015Z</time></trkpt><trkpt lat="43.9996438" lon="8.1471276"><ele>272.0</ele><time>2026-04-19T11:59:29.015Z</time></trkpt><trkpt lat="43.9997634" lon="8.1471071"><ele>270.5</ele><time>2026-04-19T11:59:31.015Z</time></trkpt><trkpt lat="43.9998301" lon="8.1471205"><ele>269.0</ele><time>2026-04-19T11:59:33.015Z</time></trkpt><trkpt lat="43.9997769" lon="8.1472426"><ele>269.0</ele><time>2026-04-19T11:59:38.016Z</time></trkpt><trkpt lat="43.999723" lon="8.1473037"><ele>269.0</ele><time>2026-04-19T11:59:40.016Z</time></trkpt><trkpt lat="43.9997668" lon="8.1473681"><ele>269.0</ele><time>2026-04-19T11:59:47.015Z</time></trkpt><trkpt lat="43.9997024" lon="8.1474687"><ele>269.0</ele><time>2026-04-19T11:59:51.015Z</time></trkpt><trkpt lat="43.9997497" lon="8.1475656"><ele>269.0</ele><time>2026-04-19T11:59:58.015Z</time></trkpt><trkpt lat="43.9998132" lon="8.1475918"><ele>269.0</ele><time>2026-04-19T12:00:01.015Z</time></trkpt><trkpt lat="43.9997784" lon="8.1476688"><ele>269.0</ele><time>2026-04-19T12:00:05.016Z</time></trkpt><trkpt lat="43.9996991" lon="8.1477342"><ele>265.5</ele><time>2026-04-19T12:00:07.015Z</time></trkpt><trkpt lat="43.9996461" lon="8.1477958"><ele>262.0</ele><time>2026-04-19T12:00:09.015Z</time></trkpt><trkpt lat="43.9997159" lon="8.1478581"><ele>258.5</ele><time>2026-04-19T12:00:13.016Z</time></trkpt><trkpt lat="43.9997273" lon="8.1479575"><ele>255.0</ele><time>2026-04-19T12:00:17.016Z</time></trkpt><trkpt lat="43.9996528" lon="8.1480233"><ele>251.50000000000003</ele><time>2026-04-19T12:00:19.017Z</time></trkpt><trkpt lat="43.9995911" lon="8.1481481"><ele>248.0</ele><time>2026-04-19T12:00:21.015Z</time></trkpt><trkpt lat="43.999548" lon="8.1482798"><ele>242.2</ele><time>2026-04-19T12:00:23.015Z</time></trkpt><trkpt lat="43.9994846" lon="8.1483883"><ele>236.4</ele><time>2026-04-19T12:00:25.015Z</time></trkpt><trkpt lat="43.9994504" lon="8.1485175"><ele>230.59999999999997</ele><time>2026-04-19T12:00:27.016Z</time></trkpt><trkpt lat="43.9994548" lon="8.1486678"><ele>224.79999999999998</ele><time>2026-04-19T12:00:29.015Z</time></trkpt><trkpt lat="43.9994682" lon="8.1488335"><ele>219.0</ele><time>2026-04-19T12:00:31.017Z</time></trkpt><trkpt lat="43.9994716" lon="8.1489219"><ele>219.0</ele><time>2026-04-19T12:00:32.016Z</time></trkpt><trkpt lat="43.9995075" lon="8.1490093"><ele>219.0</ele><time>2026-04-19T12:00:33.015Z</time></trkpt><trkpt lat="43.9995349" lon="8.1491013"><ele>219.0</ele><time>2026-04-19T12:00:34.015Z</time></trkpt><trkpt lat="43.9995511" lon="8.1492242"><ele>219.0</ele><time>2026-04-19T12:00:35.015Z</time></trkpt><trkpt lat="43.9995537" lon="8.1493747"><ele>219.0</ele><time>2026-04-19T12:00:37.015Z</time></trkpt><trkpt lat="43.9996084" lon="8.1494806"><ele>219.0</ele><time>2026-04-19T12:00:38.015Z</time></trkpt><trkpt lat="43.9996362" lon="8.1495963"><ele>215.0</ele><time>2026-04-19T12:00:40.015Z</time></trkpt><trkpt lat="43.9996465" lon="8.1497093"><ele>211.0</ele><time>2026-04-19T12:00:42.015Z</time></trkpt><trkpt lat="43.9996514" lon="8.1498193"><ele>207.0</ele><time>2026-04-19T12:00:44.015Z</time></trkpt><trkpt lat="43.9996812" lon="8.1499112"><ele>203.0</ele><time>2026-04-19T12:00:46.015Z</time></trkpt><trkpt lat="43.9997151" lon="8.150046"><ele>199.0</ele><time>2026-04-19T12:00:48.017Z</time></trkpt><trkpt lat="43.9997401" lon="8.1501298"><ele>195.0</ele><time>2026-04-19T12:00:49.015Z</time></trkpt><trkpt lat="43.9997537" lon="8.1502794"><ele>194.0</ele><time>2026-04-19T12:00:51.016Z</time></trkpt><trkpt lat="43.9997669" lon="8.1503691"><ele>193.0</ele><time>2026-04-19T12:00:52.016Z</time></trkpt><trkpt lat="43.9997737" lon="8.1504681"><ele>192.0</ele><time>2026-04-19T12:00:53.015Z</time></trkpt><trkpt lat="43.9997889" lon="8.1505682"><ele>191.0</ele><time>2026-04-19T12:00:55.015Z</time></trkpt><trkpt lat="43.9998435" lon="8.1506596"><ele>190.0</ele><time>2026-04-19T12:00:57.016Z</time></trkpt><trkpt lat="43.999884" lon="8.1507284"><ele>189.0</ele><time>2026-04-19T12:00:59.016Z</time></trkpt><trkpt lat="43.9999377" lon="8.1508101"><ele>188.0</ele><time>2026-04-19T12:01:01.015Z</time></trkpt><trkpt lat="43.9999975" lon="8.1508774"><ele>188.0</ele><time>2026-04-19T12:01:04.015Z</time></trkpt><trkpt lat="44.0000516" lon="8.1509542"><ele>188.0</ele><time>2026-04-19T12:01:08.015Z</time></trkpt><trkpt lat="44.0000876" lon="8.1508306"><ele>188.0</ele><time>2026-04-19T12:01:12.015Z</time></trkpt><trkpt lat="44.0001877" lon="8.1506824"><ele>188.0</ele><time>2026-04-19T12:01:14.015Z</time></trkpt><trkpt lat="44.0002531" lon="8.1506199"><ele>188.0</ele><time>2026-04-19T12:01:16.015Z</time></trkpt><trkpt lat="44.0002916" lon="8.1507363"><ele>187.0</ele><time>2026-04-19T12:01:19.015Z</time></trkpt><trkpt lat="44.0002892" lon="8.1508356"><ele>186.0</ele><time>2026-04-19T12:01:20.016Z</time></trkpt><trkpt lat="44.0002938" lon="8.1509378"><ele>185.0</ele><time>2026-04-19T12:01:21.016Z</time></trkpt><trkpt lat="44.000321" lon="8.1510432"><ele>184.0</ele><time>2026-04-19T12:01:22.016Z</time></trkpt><trkpt lat="44.000376" lon="8.1511433"><ele>183.0</ele><time>2026-04-19T12:01:23.015Z</time></trkpt><trkpt lat="44.0004669" lon="8.1512285"><ele>182.0</ele><time>2026-04-19T12:01:24.015Z</time></trkpt><trkpt lat="44.0005503" lon="8.1513043"><ele>182.0</ele><time>2026-04-19T12:01:25.014Z</time></trkpt><trkpt lat="44.0006306" lon="8.1513755"><ele>182.0</ele><time>2026-04-19T12:01:26.015Z</time></trkpt><trkpt lat="44.0006823" lon="8.1514391"><ele>182.0</ele><time>2026-04-19T12:01:27.014Z</time></trkpt><trkpt lat="44.0007332" lon="8.1515567"><ele>182.0</ele><time>2026-04-19T12:01:29.015Z</time></trkpt><trkpt lat="44.0006638" lon="8.1516625"><ele>182.0</ele><time>2026-04-19T12:01:31.015Z</time></trkpt><trkpt lat="44.0005853" lon="8.1516865"><ele>182.0</ele><time>2026-04-19T12:01:32.015Z</time></trkpt><trkpt lat="44.0004866" lon="8.1516998"><ele>178.39999999999998</ele><time>2026-04-19T12:01:33.015Z</time></trkpt><trkpt lat="44.0003695" lon="8.1517248"><ele>174.79999999999998</ele><time>2026-04-19T12:01:34.016Z</time></trkpt><trkpt lat="44.0002634" lon="8.1517661"><ele>171.2</ele><time>2026-04-19T12:01:35.015Z</time></trkpt><trkpt lat="44.0001636" lon="8.1518369"><ele>167.6</ele><time>2026-04-19T12:01:36.015Z</time></trkpt><trkpt lat="44.0000946" lon="8.151929"><ele>164.0</ele><time>2026-04-19T12:01:37.014Z</time></trkpt><trkpt lat="44.0000455" lon="8.152051"><ele>164.0</ele><time>2026-04-19T12:01:38.015Z</time></trkpt><trkpt lat="44.0000048" lon="8.1522"><ele>164.0</ele><time>2026-04-19T12:01:39.015Z</time></trkpt><trkpt lat="43.9999677" lon="8.1523433"><ele>164.0</ele><time>2026-04-19T12:01:40.016Z</time></trkpt><trkpt lat="43.9999374" lon="8.152499"><ele>164.0</ele><time>2026-04-19T12:01:41.016Z</time></trkpt><trkpt lat="43.999937" lon="8.1526369"><ele>164.0</ele><time>2026-04-19T12:01:42.015Z</time></trkpt><trkpt lat="43.9999306" lon="8.1527494"><ele>160.33333333333331</ele><time>2026-04-19T12:01:43.016Z</time></trkpt><trkpt lat="43.9999121" lon="8.1528959"><ele>156.66666666666666</ele><time>2026-04-19T12:01:45.016Z</time></trkpt><trkpt lat="43.9998927" lon="8.1529956"><ele>153.0</ele><time>2026-04-19T12:01:49.015Z</time></trkpt><trkpt lat="43.9999633" lon="8.15303"><ele>149.33333333333334</ele><time>2026-04-19T12:01:52.015Z</time></trkpt><trkpt lat="43.9999602" lon="8.1531862"><ele>145.66666666666669</ele><time>2026-04-19T12:01:55.015Z</time></trkpt><trkpt lat="43.9999716" lon="8.1532727"><ele>142.0</ele><time>2026-04-19T12:01:56.015Z</time></trkpt><trkpt lat="43.9999833" lon="8.1533739"><ele>139.57142857142856</ele><time>2026-04-19T12:01:57.016Z</time></trkpt><trkpt lat="43.9999737" lon="8.153465"><ele>137.14285714285714</ele><time>2026-04-19T12:01:58.014Z</time></trkpt><trkpt lat="43.9999712" lon="8.1535571"><ele>134.71428571428572</ele><time>2026-04-19T12:01:59.015Z</time></trkpt><trkpt lat="43.999991" lon="8.1536416"><ele>132.28571428571428</ele><time>2026-04-19T12:02:00.015Z</time></trkpt><trkpt lat="44.0000193" lon="8.1537364"><ele>129.85714285714286</ele><time>2026-04-19T12:02:01.016Z</time></trkpt><trkpt lat="44.0000564" lon="8.1538303"><ele>127.42857142857142</ele><time>2026-04-19T12:02:02.015Z</time></trkpt><trkpt lat="44.0000926" lon="8.1539244"><ele>125.0</ele><time>2026-04-19T12:02:03.016Z</time></trkpt><trkpt lat="44.0001515" lon="8.1540696"><ele>123.49999999999999</ele><time>2026-04-19T12:02:05.015Z</time></trkpt><trkpt lat="44.0001728" lon="8.1542177"><ele>122.0</ele><time>2026-04-19T12:02:07.016Z</time></trkpt><trkpt lat="44.000205" lon="8.1543098"><ele>120.5</ele><time>2026-04-19T12:02:08.015Z</time></trkpt><trkpt lat="44.0002414" lon="8.1543954"><ele>119.0</ele><time>2026-04-19T12:02:09.016Z</time></trkpt><trkpt lat="44.0002885" lon="8.154476"><ele>117.49999999999999</ele><time>2026-04-19T12:02:10.015Z</time></trkpt><trkpt lat="44.0003239" lon="8.1545539"><ele>116.0</ele><time>2026-04-19T12:02:11.015Z</time></trkpt><trkpt lat="44.0003737" lon="8.1546548"><ele>116.0</ele><time>2026-04-19T12:02:13.014Z</time></trkpt><trkpt lat="44.0004253" lon="8.1547713"><ele>116.0</ele><time>2026-04-19T12:02:15.015Z</time></trkpt><trkpt lat="44.000508" lon="8.1548862"><ele>116.0</ele><time>2026-04-19T12:02:17.015Z</time></trkpt><trkpt lat="44.0005722" lon="8.1549333"><ele>116.0</ele><time>2026-04-19T12:02:18.016Z</time></trkpt><trkpt lat="44.0006543" lon="8.155048"><ele>116.0</ele><time>2026-04-19T12:02:20.016Z</time></trkpt><trkpt lat="44.0007271" lon="8.1551532"><ele>113.8</ele><time>2026-04-19T12:02:22.015Z</time></trkpt><trkpt lat="44.0007896" lon="8.1552413"><ele>111.6</ele><time>2026-04-19T12:02:24.014Z</time></trkpt><trkpt lat="44.0008449" lon="8.1553611"><ele>109.4</ele><time>2026-04-19T12:02:26.015Z</time></trkpt><trkpt lat="44.0009025" lon="8.1555046"><ele>107.2</ele><time>2026-04-19T12:02:28.015Z</time></trkpt><trkpt lat="44.0009175" lon="8.1556391"><ele>105.0</ele><time>2026-04-19T12:02:30.015Z</time></trkpt><trkpt lat="44.0009699" lon="8.1557457"><ele>103.2</ele><time>2026-04-19T12:02:32.015Z</time></trkpt><trkpt lat="44.0010204" lon="8.1558633"><ele>101.4</ele><time>2026-04-19T12:02:34.016Z</time></trkpt><trkpt lat="44.0010454" lon="8.1560179"><ele>99.6</ele><time>2026-04-19T12:02:36.015Z</time></trkpt><trkpt lat="44.001067" lon="8.1561648"><ele>97.8</ele><time>2026-04-19T12:02:38.014Z</time></trkpt><trkpt lat="44.001071" lon="8.1562542"><ele>96.0</ele><time>2026-04-19T12:02:40.015Z</time></trkpt><trkpt lat="44.0010598" lon="8.156353"><ele>96.0</ele><time>2026-04-19T12:02:43.015Z</time></trkpt><trkpt lat="44.0010113" lon="8.1564168"><ele>96.0</ele><time>2026-04-19T12:02:45.015Z</time></trkpt><trkpt lat="44.0009694" lon="8.1565077"><ele>96.0</ele><time>2026-04-19T12:02:47.016Z</time></trkpt><trkpt lat="44.0009283" lon="8.156618"><ele>96.0</ele><time>2026-04-19T12:02:49.016Z</time></trkpt><trkpt lat="44.0008951" lon="8.1567717"><ele>96.0</ele><time>2026-04-19T12:02:51.015Z</time></trkpt><trkpt lat="44.0008727" lon="8.1569273"><ele>91.2</ele><time>2026-04-19T12:02:53.015Z</time></trkpt><trkpt lat="44.0008611" lon="8.1570785"><ele>86.39999999999999</ele><time>2026-04-19T12:02:55.015Z</time></trkpt><trkpt lat="44.0008937" lon="8.1572208"><ele>81.6</ele><time>2026-04-19T12:02:57.015Z</time></trkpt><trkpt lat="44.0009688" lon="8.1573086"><ele>76.8</ele><time>2026-04-19T12:02:59.014Z</time></trkpt><trkpt lat="44.0010116" lon="8.1573979"><ele>72.0</ele><time>2026-04-19T12:03:01.015Z</time></trkpt><trkpt lat="44.001037" lon="8.1574952"><ele>68.33333333333333</ele><time>2026-04-19T12:03:03.015Z</time></trkpt><trkpt lat="44.0010664" lon="8.1575885"><ele>64.66666666666667</ele><time>2026-04-19T12:03:05.015Z</time></trkpt><trkpt lat="44.0010823" lon="8.1577019"><ele>61.0</ele><time>2026-04-19T12:03:07.016Z</time></trkpt><trkpt lat="44.0011132" lon="8.1578385"><ele>57.333333333333336</ele><time>2026-04-19T12:03:09.015Z</time></trkpt><trkpt lat="44.0011486" lon="8.157968"><ele>53.66666666666667</ele><time>2026-04-19T12:03:11.014Z</time></trkpt><trkpt lat="44.0011792" lon="8.1580767"><ele>50.0</ele><time>2026-04-19T12:03:13.015Z</time></trkpt><trkpt lat="44.0012555" lon="8.1581584"><ele>48.66666666666667</ele><time>2026-04-19T12:03:15.015Z</time></trkpt><trkpt lat="44.0013061" lon="8.1582471"><ele>47.333333333333336</ele><time>2026-04-19T12:03:17.015Z</time></trkpt><trkpt lat="44.0013492" lon="8.1583613"><ele>46.0</ele><time>2026-04-19T12:03:20.014Z</time></trkpt><trkpt lat="44.0014313" lon="8.1584054"><ele>44.66666666666667</ele><time>2026-04-19T12:03:21.015Z</time></trkpt><trkpt lat="44.0015097" lon="8.1584607"><ele>43.333333333333336</ele><time>2026-04-19T12:03:22.015Z</time></trkpt><trkpt lat="44.0015977" lon="8.1585178"><ele>42.0</ele><time>2026-04-19T12:03:23.015Z</time></trkpt><trkpt lat="44.0016957" lon="8.1585785"><ele>40.25</ele><time>2026-04-19T12:03:24.015Z</time></trkpt><trkpt lat="44.0018123" lon="8.1586508"><ele>38.5</ele><time>2026-04-19T12:03:25.015Z</time></trkpt><trkpt lat="44.0019117" lon="8.1587253"><ele>36.75</ele><time>2026-04-19T12:03:26.015Z</time></trkpt><trkpt lat="44.0020068" lon="8.1588193"><ele>35.0</ele><time>2026-04-19T12:03:27.016Z</time></trkpt><trkpt lat="44.0021005" lon="8.1589158"><ele>33.75</ele><time>2026-04-19T12:03:28.015Z</time></trkpt><trkpt lat="44.0021764" lon="8.1590359"><ele>32.5</ele><time>2026-04-19T12:03:29.014Z</time></trkpt><trkpt lat="44.002252" lon="8.1591534"><ele>31.25</ele><time>2026-04-19T12:03:30.014Z</time></trkpt><trkpt lat="44.0023377" lon="8.1592725"><ele>30.0</ele><time>2026-04-19T12:03:31.014Z</time></trkpt><trkpt lat="44.0024582" lon="8.159335"><ele>28.333333333333332</ele><time>2026-04-19T12:03:32.014Z</time></trkpt><trkpt lat="44.0025488" lon="8.159396"><ele>26.666666666666668</ele><time>2026-04-19T12:03:33.015Z</time></trkpt><trkpt lat="44.0026171" lon="8.1594318"><ele>25.0</ele><time>2026-04-19T12:03:35.014Z</time></trkpt><trkpt lat="44.0026753" lon="8.159477"><ele>23.333333333333336</ele><time>2026-04-19T12:03:41.015Z</time></trkpt><trkpt lat="44.002744" lon="8.1595163"><ele>21.666666666666668</ele><time>2026-04-19T12:03:43.014Z</time></trkpt><trkpt lat="44.0028187" lon="8.1594777"><ele>20.0</ele><time>2026-04-19T12:03:44.015Z</time></trkpt><trkpt lat="44.0028615" lon="8.1593943"><ele>20.0</ele><time>2026-04-19T12:03:45.015Z</time></trkpt><trkpt lat="44.0029168" lon="8.159285"><ele>20.0</ele><time>2026-04-19T12:03:46.015Z</time></trkpt><trkpt lat="44.0029532" lon="8.1591689"><ele>20.0</ele><time>2026-04-19T12:03:47.015Z</time></trkpt><trkpt lat="44.0030036" lon="8.1590813"><ele>20.0</ele><time>2026-04-19T12:03:48.014Z</time></trkpt><trkpt lat="44.0030661" lon="8.1590345"><ele>20.0</ele><time>2026-04-19T12:03:49.015Z</time></trkpt><trkpt lat="44.0031345" lon="8.1590149"><ele>20.0</ele><time>2026-04-19T12:03:50.015Z</time></trkpt><trkpt lat="44.0032047" lon="8.1590303"><ele>20.0</ele><time>2026-04-19T12:03:51.014Z</time></trkpt><trkpt lat="44.0032604" lon="8.1590954"><ele>20.0</ele><time>2026-04-19T12:03:52.015Z</time></trkpt><trkpt lat="44.0033233" lon="8.1591705"><ele>20.0</ele><time>2026-04-19T12:03:53.014Z</time></trkpt><trkpt lat="44.0033901" lon="8.1592107"><ele>20.0</ele><time>2026-04-19T12:03:54.014Z</time></trkpt><trkpt lat="44.0034855" lon="8.1592287"><ele>20.0</ele><time>2026-04-19T12:03:56.015Z</time></trkpt><trkpt lat="44.0035868" lon="8.1592244"><ele>20.0</ele><time>2026-04-19T12:03:59.015Z</time></trkpt><trkpt lat="44.0036631" lon="8.1592425"><ele>24.0</ele><time>2026-04-19T12:04:01.016Z</time></trkpt><trkpt lat="44.0036425" lon="8.1593605"><ele>24.0</ele><time>2026-04-19T12:04:03.015Z</time></trkpt><trkpt lat="44.0036054" lon="8.159441"><ele>24.0</ele><time>2026-04-19T12:04:04.014Z</time></trkpt><trkpt lat="44.0035756" lon="8.1595259"><ele>24.0</ele><time>2026-04-19T12:04:05.014Z</time></trkpt><trkpt lat="44.0035596" lon="8.1596398"><ele>24.0</ele><time>2026-04-19T12:04:07.014Z</time></trkpt></trkseg></trk></gpx>